Time;durP1;ratioP1;P1;durP2;ratioP2;P2;SDS_P1;SDS_P2;PMS_P1;PMS_P2;Temp;Humidity;BMP_temperature;BMP_pressure;BME280_temperature;BME280_humidity;BME280_pressure;Samples;Min_cycle;Max_cycle;Signal;HPM_P1;HPM_P2
2022/09/14 00:01:27;;;;;;;7.00;1.75;;;;;;;18.64;77.08;100890.59;5019042;28;20029;-68
2022/09/14 00:04:02;;;;;;;7.35;1.70;;;;;;;18.60;76.77;100874.13;5016360;28;20470;-69
2022/09/14 00:06:29;;;;;;;9.05;2.00;;;;;;;18.47;78.25;100881.13;5017318;28;20030;-69
2022/09/14 00:08:57;;;;;;;8.85;1.90;;;;;;;18.52;77.95;100881.09;5022541;28;20124;-68
2022/09/14 00:11:24;;;;;;;5.80;2.10;;;;;;;18.52;78.70;100881.09;5021067;28;20061;-68
2022/09/14 00:13:51;;;;;;;8.13;1.70;;;;;;;18.47;78.21;100875.03;5012146;28;20045;-68
2022/09/14 00:16:23;;;;;;;6.80;1.70;;;;;;;18.46;77.62;100881.13;5013867;28;20104;-68
2022/09/14 00:18:50;;;;;;;8.98;1.60;;;;;;;18.42;77.64;100874.19;5019910;28;20064;-68
2022/09/14 00:21:16;;;;;;;8.05;1.58;;;;;;;18.40;77.17;100882.00;5014803;28;20035;-68
2022/09/14 00:23:41;;;;;;;8.57;1.50;;;;;;;18.38;77.57;100869.84;5020905;28;20033;-68
2022/09/14 00:26:11;;;;;;;8.45;1.60;;;;;;;18.40;77.37;100865.53;5016122;28;20519;-66
2022/09/14 00:29:03;;;;;;;6.03;1.77;;;;;;;18.38;76.98;100865.53;5017393;28;20034;-68
2022/09/14 00:31:29;;;;;;;7.13;1.67;;;;;;;18.31;76.72;100862.94;5016685;28;20533;-68
2022/09/14 00:33:55;;;;;;;7.40;1.75;;;;;;;18.28;77.19;100860.38;5017755;28;20033;-68
2022/09/14 00:36:26;;;;;;;5.80;1.77;;;;;;;18.29;77.21;100862.97;4997672;28;20052;-68
2022/09/14 00:38:55;;;;;;;5.25;1.50;;;;;;;18.27;77.10;100856.91;5019470;28;20037;-68
2022/09/14 00:41:23;;;;;;;8.98;1.85;;;;;;;18.30;76.20;100858.63;5017600;28;20036;-68
2022/09/14 00:44:04;;;;;;;8.35;1.80;;;;;;;18.33;76.20;100851.69;5020587;28;20026;-68
2022/09/14 00:46:35;;;;;;;6.88;1.75;;;;;;;18.33;76.58;100850.81;5013800;28;20029;-68
2022/09/14 00:49:04;;;;;;;10.68;1.90;;;;;;;18.21;77.13;100842.19;5015425;28;20021;-68
2022/09/14 00:51:32;;;;;;;9.07;1.98;;;;;;;18.20;76.17;100837.84;5016304;28;20040;-68
2022/09/14 00:54:00;;;;;;;7.97;1.95;;;;;;;18.19;76.42;100830.88;5019986;28;20036;-68
2022/09/14 00:56:26;;;;;;;7.93;1.80;;;;;;;18.20;76.38;100829.16;4999294;28;20021;-68
2022/09/14 00:58:54;;;;;;;9.48;1.77;;;;;;;18.18;76.89;100834.38;5018539;28;20039;-68
2022/09/14 01:01:20;;;;;;;8.27;1.80;;;;;;;18.14;77.15;100821.34;5018065;28;20460;-68
2022/09/14 01:03:45;;;;;;;7.72;2.47;;;;;;;18.13;76.85;100820.50;5001742;28;20037;-68
2022/09/14 01:06:17;;;;;;;6.50;1.70;;;;;;;18.13;76.65;100817.03;5016332;28;20028;-68
2022/09/14 01:08:59;;;;;;;6.15;1.40;;;;;;;18.16;76.12;100815.28;5016412;28;20029;-68
2022/09/14 01:11:40;;;;;;;11.43;1.70;;;;;;;18.13;76.51;100810.09;5015497;28;20037;-68
2022/09/14 01:14:30;;;;;;;8.88;1.92;;;;;;;18.11;76.39;100805.78;5011849;28;20044;-68
2022/09/14 01:17:03;;;;;;;7.43;1.70;;;;;;;18.07;76.94;100804.03;5016922;28;20108;-68
2022/09/14 01:20:06;;;;;;;7.03;1.70;;;;;;;18.13;76.38;100801.41;5021717;28;20484;-69
2022/09/14 01:23:02;;;;;;;9.45;1.65;;;;;;;18.11;75.98;100798.84;5021247;28;20439;-69
2022/09/14 01:25:55;;;;;;;7.40;1.73;;;;;;;18.06;75.74;100797.13;5022532;28;20048;-69
2022/09/14 01:28:38;;;;;;;9.18;1.80;;;;;;;17.95;76.82;100792.81;5020013;28;20048;-69
2022/09/14 01:31:11;;;;;;;12.25;2.00;;;;;;;17.90;77.47;100783.31;5024601;28;20048;-69
2022/09/14 01:33:45;;;;;;;8.45;2.00;;;;;;;17.88;78.36;100782.44;5024599;28;20079;-69
2022/09/14 01:36:14;;;;;;;8.85;2.13;;;;;;;17.87;79.10;100796.31;5004675;28;20032;-69
2022/09/14 01:38:45;;;;;;;11.98;2.30;;;;;;;17.72;79.24;100781.63;5022385;28;20037;-69
2022/09/14 01:41:14;;;;;;;6.20;1.67;;;;;;;17.81;78.80;100804.13;5023473;28;20053;-69
2022/09/14 01:43:48;;;;;;;;;;;;;;;18.03;77.06;100805.81;5023954;28;20161;-69
2022/09/14 01:46:18;;;;;;;7.30;1.75;;;;;;;17.79;77.88;100811.94;5022266;28;19921;-69
2022/09/14 01:48:54;;;;;;;6.78;2.00;;;;;;;17.78;78.75;100799.81;5006250;28;20037;-69
2022/09/14 01:51:27;;;;;;;5.82;2.08;;;;;;;17.75;78.25;100801.53;5022264;28;20033;-69
2022/09/14 01:53:58;;;;;;;8.48;1.80;;;;;;;17.70;78.76;100794.56;5021535;28;20567;-69
2022/09/14 01:56:31;;;;;;;8.80;1.80;;;;;;;17.73;78.35;100792.91;5022137;28;20029;-69
2022/09/14 01:59:03;;;;;;;6.07;1.85;;;;;;;17.65;78.79;100788.53;5022191;28;20032;-69
2022/09/14 02:01:55;;;;;;;7.05;1.85;;;;;;;17.62;79.03;100785.94;5020929;28;20044;-69
2022/09/14 02:04:41;;;;;;;7.18;2.25;;;;;;;17.61;78.13;100779.00;5022844;28;20088;-69
2022/09/14 02:07:07;;;;;;;5.75;1.60;;;;;;;17.55;79.36;100779.03;5022591;28;20044;-69
2022/09/14 02:09:32;;;;;;;7.45;1.70;;;;;;;17.58;79.49;100773.81;5022861;28;20057;-69
2022/09/14 02:11:59;;;;;;;7.53;1.80;;;;;;;17.55;79.27;100773.81;5004210;28;20056;-69
2022/09/14 02:14:26;;;;;;;5.25;1.92;;;;;;;17.49;80.61;100778.19;5022574;28;20099;-69
2022/09/14 02:16:52;;;;;;;5.55;1.98;;;;;;;17.49;80.11;100785.97;5024526;28;20033;-69
2022/09/14 02:19:18;;;;;;;7.32;2.15;;;;;;;17.44;80.68;100788.56;5005054;28;20675;-69
2022/09/14 02:21:44;;;;;;;6.90;1.58;;;;;;;17.47;79.90;100791.16;5025073;28;20495;-69
2022/09/14 02:24:11;;;;;;;7.22;1.65;;;;;;;17.49;79.50;100788.56;5023091;28;20037;-69
2022/09/14 02:26:38;;;;;;;6.88;2.17;;;;;;;17.46;80.01;100780.75;5026689;28;20175;-69
2022/09/14 02:29:04;;;;;;;5.20;1.98;;;;;;;17.42;80.03;100782.50;5018593;28;20030;-69
2022/09/14 02:31:52;;;;;;;8.38;1.98;;;;;;;17.48;80.07;100782.50;5021655;28;20115;-69
2022/09/14 02:34:36;;;;;;;7.35;1.90;;;;;;;17.52;79.85;100792.00;5023670;28;20048;-69
2022/09/14 02:37:12;;;;;;;7.05;1.75;;;;;;;17.45;80.48;100790.28;5020175;28;20116;-68
2022/09/14 02:39:53;;;;;;;8.00;3.00;;;;;;;17.53;79.54;100791.13;5024263;28;20056;-69
2022/09/14 02:42:41;;;;;;;5.40;1.77;;;;;;;17.49;80.00;100789.44;5018213;28;20091;-69
2022/09/14 02:45:44;;;;;;;7.75;2.08;;;;;;;17.50;79.79;100783.38;5019029;28;20028;-69
2022/09/14 02:48:28;;;;;;;6.53;2.13;;;;;;;17.45;79.75;100782.50;5020869;28;20048;-69
2022/09/14 02:51:16;;;;;;;9.05;2.17;;;;;;;17.49;80.30;100789.44;5021008;28;20056;-69
2022/09/14 02:53:48;;;;;;;8.32;2.10;;;;;;;17.48;80.37;100779.91;5018709;28;20048;-69
2022/09/14 02:56:15;;;;;;;7.95;1.92;;;;;;;17.39;81.58;100778.16;5019094;28;20492;-69
2022/09/14 02:58:43;;;;;;;9.10;2.15;;;;;;;17.32;81.23;100765.19;5018432;28;20120;-69
2022/09/14 03:01:15;;;;;;;6.70;2.13;;;;;;;17.38;81.20;100775.59;4999397;28;20116;-70
2022/09/14 03:03:40;;;;;;;8.32;2.03;;;;;;;17.33;81.23;100775.56;5013125;28;20033;-69
2022/09/14 03:06:06;;;;;;;9.90;2.13;;;;;;;17.35;81.16;100780.78;5021185;28;20028;-69
2022/09/14 03:08:32;;;;;;;4.88;1.60;;;;;;;17.31;80.77;100772.13;5016192;28;20048;-69
2022/09/14 03:10:58;;;;;;;8.48;2.28;;;;;;;17.32;80.79;100767.78;5001009;28;20044;-68
2022/09/14 03:13:24;;;;;;;6.07;1.80;;;;;;;17.23;80.79;100762.59;5018525;28;20100;-70
2022/09/14 03:15:49;;;;;;;5.47;1.75;;;;;;;17.25;80.41;100756.53;5021517;28;20029;-69
2022/09/14 03:18:15;;;;;;;6.75;1.70;;;;;;;17.11;79.29;100766.09;5000000;28;20712;-69
2022/09/14 03:20:41;;;;;;;11.65;1.80;;;;;;;17.14;79.31;100769.53;5021758;28;20042;-69
2022/09/14 03:23:07;;;;;;;7.88;1.60;;;;;;;17.09;79.31;100763.47;5021158;28;20029;-69
2022/09/14 03:25:39;;;;;;;6.90;1.50;;;;;;;17.04;79.55;100757.41;5016056;28;20484;-69
2022/09/14 03:28:05;;;;;;;6.00;1.60;;;;;;;16.99;79.49;100766.09;5020628;28;20631;-69
2022/09/14 03:30:31;;;;;;;7.25;1.70;;;;;;;16.97;79.88;100744.41;5019033;28;20017;-69
2022/09/14 03:32:58;;;;;;;5.05;1.63;;;;;;;16.96;79.93;100747.88;5000621;28;20416;-69
2022/09/14 03:35:23;;;;;;;4.45;1.58;;;;;;;16.95;79.87;100749.63;5021070;28;20029;-69
2022/09/14 03:37:49;;;;;;;8.20;1.80;;;;;;;16.91;79.67;100742.69;5011854;28;20045;-69
2022/09/14 03:40:16;;;;;;;8.57;1.73;;;;;;;16.80;80.08;100744.41;5016511;28;20069;-69
2022/09/14 03:42:43;;;;;;;7.43;1.58;;;;;;;16.83;79.65;100741.81;5017867;28;20108;-69
2022/09/14 03:45:10;;;;;;;5.03;1.67;;;;;;;16.82;79.88;100729.72;5015326;28;20029;-70
2022/09/14 03:47:36;;;;;;;6.35;1.40;;;;;;;16.74;80.02;100734.03;5015437;28;20151;-70
2022/09/14 03:50:01;;;;;;;6.25;1.38;;;;;;;16.71;80.08;100729.69;5020166;28;20033;-70
2022/09/14 03:52:26;;;;;;;7.18;1.60;;;;;;;16.73;80.08;100724.50;5018914;28;20033;-70
2022/09/14 03:54:52;;;;;;;8.75;1.75;;;;;;;16.75;80.49;100733.19;4987516;28;20095;-69
2022/09/14 03:57:17;;;;;;;6.90;1.42;;;;;;;16.78;80.11;100727.97;5017808;28;20044;-70
2022/09/14 03:59:43;;;;;;;6.13;1.33;;;;;;;16.71;80.64;100718.44;5016615;28;20030;-70
2022/09/14 04:02:08;;;;;;;7.30;1.40;;;;;;;16.69;79.88;100712.38;5021294;28;20029;-69
2022/09/14 04:04:34;;;;;;;6.00;1.50;;;;;;;16.73;80.11;100714.13;5016695;28;20516;-70
2022/09/14 04:06:59;;;;;;;5.32;1.27;;;;;;;16.74;80.59;100718.44;5022387;28;20029;-69
2022/09/14 04:09:25;;;;;;;5.97;1.30;;;;;;;16.69;81.65;100708.03;5017663;28;20124;-69
2022/09/14 04:11:50;;;;;;;7.03;1.40;;;;;;;16.67;80.39;100711.47;5014085;28;20611;-69
2022/09/14 04:14:16;;;;;;;6.20;1.83;;;;;;;16.67;80.50;100708.88;5019275;28;20030;-69
2022/09/14 04:16:43;;;;;;;5.80;1.30;;;;;;;16.57;80.42;100708.91;5019065;28;20498;-69
2022/09/14 04:19:10;;;;;;;4.68;1.20;;;;;;;16.64;80.31;100704.56;5015900;28;20064;-69
2022/09/14 04:21:35;;;;;;;5.75;1.30;;;;;;;16.61;80.65;100705.41;5018742;28;20034;-70
2022/09/14 04:24:01;;;;;;;5.07;1.45;;;;;;;16.65;81.82;100702.84;5017871;28;20094;-70
2022/09/14 04:26:28;;;;;;;5.82;1.13;;;;;;;16.69;81.24;100699.38;5012553;28;20105;-69
2022/09/14 04:28:57;;;;;;;11.00;1.92;;;;;;;16.69;80.58;100694.19;5014300;28;20069;-70
2022/09/14 04:31:24;;;;;;;7.80;1.48;;;;;;;16.68;80.70;100695.91;4996412;28;20038;-70
2022/09/14 04:33:50;;;;;;;8.57;1.42;;;;;;;16.58;79.84;100689.84;5020094;28;20060;-70
2022/09/14 04:36:21;;;;;;;5.78;1.48;;;;;;;16.65;80.17;100688.13;5020176;28;20393;-69
2022/09/14 04:38:47;;;;;;;7.38;1.40;;;;;;;16.61;79.99;100687.25;5016369;28;20033;-69
2022/09/14 04:41:19;;;;;;;6.22;1.35;;;;;;;16.63;80.38;100695.06;5015375;28;20103;-69
2022/09/14 04:43:45;;;;;;;5.47;1.40;;;;;;;16.59;81.31;100694.19;5011429;28;20091;-69
2022/09/14 04:46:14;;;;;;;6.35;1.38;;;;;;;16.60;80.35;100688.13;5011216;28;20022;-69
2022/09/14 04:48:40;;;;;;;7.43;2.42;;;;;;;16.61;80.37;100692.44;5019728;28;20049;-68
2022/09/14 04:51:09;;;;;;;7.10;1.30;;;;;;;16.60;80.94;100690.72;5018545;28;20072;-69
2022/09/14 04:53:37;;;;;;;3.95;1.20;;;;;;;16.62;79.94;100688.09;5014765;28;20036;-69
2022/09/14 04:56:07;;;;;;;5.80;1.30;;;;;;;16.54;81.11;100674.28;5016949;28;20036;-69
2022/09/14 04:58:35;;;;;;;6.00;2.08;;;;;;;16.55;81.17;100663.88;5016137;28;21182;-69
2022/09/14 05:01:35;;;;;;;7.13;1.45;;;;;;;16.62;80.44;100662.16;5018084;28;20536;-69
2022/09/14 05:04:01;;;;;;;5.25;1.10;;;;;;;16.52;80.31;100656.09;5003358;28;20080;-69
2022/09/14 05:06:30;;;;;;;6.68;1.30;;;;;;;16.54;80.34;100656.97;5017315;28;20576;-69
2022/09/14 05:08:58;;;;;;;5.95;1.40;;;;;;;16.50;80.84;100667.34;5020649;28;20083;-69
2022/09/14 05:11:27;;;;;;;7.43;1.05;;;;;;;16.59;80.95;100667.34;5017039;28;20065;-69
2022/09/14 05:13:54;;;;;;;8.93;1.48;;;;;;;16.58;81.03;100663.91;5015045;28;20099;-69
2022/09/14 05:16:25;;;;;;;7.05;1.67;;;;;;;16.60;80.76;100669.09;5018139;28;20405;-69
2022/09/14 05:18:54;;;;;;;8.18;1.42;;;;;;;16.58;81.49;100670.81;4994638;28;20034;-69
2022/09/14 05:21:20;;;;;;;6.40;1.53;;;;;;;16.57;80.90;100671.69;5014453;28;20057;-70
2022/09/14 05:23:47;;;;;;;8.25;1.48;;;;;;;16.57;81.05;100669.09;5017713;28;20107;-70
2022/09/14 05:26:13;;;;;;;6.53;1.50;;;;;;;16.55;81.39;100670.81;5018040;28;20022;-70
2022/09/14 05:28:39;;;;;;;5.45;1.40;;;;;;;16.59;81.29;100673.41;5022944;28;20112;-69
2022/09/14 05:31:09;;;;;;;5.43;1.60;;;;;;;16.61;81.40;100678.59;5017520;28;20476;-69
2022/09/14 05:33:35;;;;;;;7.78;1.50;;;;;;;16.61;81.29;100689.84;5019222;28;20041;-69
2022/09/14 05:36:06;;;;;;;7.07;1.90;;;;;;;16.60;82.17;100682.91;5019460;28;20034;-69
2022/09/14 05:38:33;;;;;;;7.28;1.75;;;;;;;16.60;82.94;100687.25;5020737;28;20034;-69
2022/09/14 05:40:59;;;;;;;7.47;1.70;;;;;;;16.57;82.01;100688.13;5021601;28;20033;-68
2022/09/14 05:43:27;;;;;;;9.15;1.73;;;;;;;16.60;81.83;100690.72;5016721;28;20025;-67
2022/09/14 05:45:52;;;;;;;4.63;1.40;;;;;;;16.59;82.01;100691.59;5017387;28;20037;-66
2022/09/14 05:48:18;;;;;;;7.05;1.50;;;;;;;16.58;82.59;100684.66;5015563;28;20295;-66
2022/09/14 05:50:45;;;;;;;8.30;1.45;;;;;;;16.55;82.56;100688.97;5014304;28;20463;-66
2022/09/14 05:53:10;;;;;;;5.32;1.30;;;;;;;16.53;82.52;100691.56;5008627;28;20389;-67
2022/09/14 05:55:35;;;;;;;5.10;1.23;;;;;;;16.53;81.63;100690.72;5016809;28;20476;-66
2022/09/14 05:58:01;;;;;;;4.80;1.50;;;;;;;16.60;81.63;100692.44;5019645;28;20033;-66
2022/09/14 06:00:27;;;;;;;6.13;1.90;;;;;;;16.61;82.47;100692.44;5017214;28;20512;-66
2022/09/14 06:02:53;;;;;;;5.90;1.70;;;;;;;16.52;82.83;100689.84;5020609;28;20108;-65
2022/09/14 06:05:20;;;;;;;6.85;1.70;;;;;;;16.56;82.11;100688.09;5017955;28;20049;-65
2022/09/14 06:07:53;;;;;;;6.55;1.90;;;;;;;16.55;82.62;100695.03;5023679;28;20100;-65
2022/09/14 06:10:20;;;;;;;6.53;1.75;;;;;;;16.50;83.63;100690.69;5022289;28;20443;-65
2022/09/14 06:12:45;;;;;;;7.07;1.73;;;;;;;16.47;83.54;100682.91;5024097;28;20104;-66
2022/09/14 06:15:11;;;;;;;6.43;1.60;;;;;;;16.53;82.49;100688.13;5020203;28;20044;-66
2022/09/14 06:17:36;;;;;;;6.30;2.10;;;;;;;16.46;83.02;100697.63;5020981;28;20043;-66
2022/09/14 06:20:03;;;;;;;8.05;1.98;;;;;;;16.46;84.74;100701.97;5021063;28;20037;-66
2022/09/14 06:22:30;;;;;;;7.40;2.22;;;;;;;16.54;83.40;100710.59;5018626;28;20179;-66
2022/09/14 06:24:55;;;;;;;8.25;1.90;;;;;;;16.53;83.82;100708.88;5027423;28;20029;-66
2022/09/14 06:27:21;;;;;;;8.82;1.92;;;;;;;16.52;83.69;100708.03;4994571;28;20037;-66
2022/09/14 06:29:50;;;;;;;9.10;1.83;;;;;;;16.51;83.83;100695.91;5020954;28;20034;-66
2022/09/14 06:32:17;;;;;;;9.55;2.00;;;;;;;16.53;83.53;100693.31;5022325;28;20029;-66
2022/09/14 06:34:43;;;;;;;8.07;1.85;;;;;;;16.59;84.23;100695.91;5004723;28;20054;-66
2022/09/14 06:37:08;;;;;;;7.30;1.98;;;;;;;16.59;84.02;100686.38;5003027;28;20090;-66
2022/09/14 06:39:34;;;;;;;10.05;1.90;;;;;;;16.53;85.00;100686.38;5006226;28;20026;-66
2022/09/14 06:41:59;;;;;;;9.38;2.10;;;;;;;16.57;84.87;100685.53;5007679;28;20037;-65
2022/09/14 06:44:24;;;;;;;9.88;2.50;;;;;;;16.60;84.37;100688.13;5020522;28;20029;-66
2022/09/14 06:46:50;;;;;;;9.98;2.47;;;;;;;16.59;85.17;100686.38;5025861;28;20038;-66
2022/09/14 06:49:19;;;;;;;9.38;2.22;;;;;;;16.57;85.87;100675.16;5022738;28;20686;-66
2022/09/14 06:51:46;;;;;;;5.95;1.77;;;;;;;16.56;85.31;100665.63;5022634;28;20037;-66
2022/09/14 06:54:14;;;;;;;5.95;2.25;;;;;;;16.58;85.94;100670.81;5003441;28;20433;-66
2022/09/14 06:56:40;;;;;;;5.50;2.10;;;;;;;16.51;85.33;100674.28;5019078;28;20024;-66
2022/09/14 06:59:08;;;;;;;6.95;2.33;;;;;;;16.53;85.92;100673.41;5018855;28;20038;-66
2022/09/14 07:01:34;;;;;;;6.80;2.20;;;;;;;16.53;86.22;100670.81;4998684;28;20033;-66
2022/09/14 07:04:00;;;;;;;8.32;2.60;;;;;;;16.57;86.35;100674.28;5020095;28;20037;-66
2022/09/14 07:06:29;;;;;;;6.47;1.98;;;;;;;16.56;86.83;100673.44;5021462;28;20036;-66
2022/09/14 07:08:55;;;;;;;8.43;2.35;;;;;;;16.57;86.02;100664.78;5022864;28;20176;-68
2022/09/14 07:11:24;;;;;;;10.55;2.50;;;;;;;16.58;86.69;100661.31;5020605;28;20440;-68
2022/09/14 07:13:53;;;;;;;5.25;2.38;;;;;;;16.58;85.94;100665.63;5002940;28;20101;-68
2022/09/14 07:16:19;;;;;;;4.85;2.20;;;;;;;16.57;85.42;100662.16;5018086;28;20029;-68
2022/09/14 07:18:45;;;;;;;8.77;2.67;;;;;;;16.59;84.82;100663.03;5018728;28;20049;-67
2022/09/14 07:21:16;;;;;;;4.78;2.20;;;;;;;16.55;84.77;100661.28;5018637;28;20391;-68
2022/09/14 07:23:43;;;;;;;7.30;2.40;;;;;;;16.47;85.59;100656.97;5019659;28;20472;-68
2022/09/14 07:26:20;;;;;;;10.00;2.60;;;;;;;16.55;86.11;100661.28;5020474;28;21779;-68
2022/09/14 07:28:49;;;;;;;8.50;2.70;;;;;;;16.54;86.44;100654.38;5018680;28;20040;-69
2022/09/14 07:31:20;;;;;;;5.95;2.70;;;;;;;16.56;86.09;100668.22;5024128;28;20021;-67
2022/09/14 07:33:46;;;;;;;9.00;2.78;;;;;;;16.55;87.11;100661.28;5019820;28;20083;-67
2022/09/14 07:36:12;;;;;;;6.88;2.50;;;;;;;16.53;86.74;100663.03;4999472;28;20477;-68
2022/09/14 07:38:38;;;;;;;10.05;2.65;;;;;;;16.46;86.00;100658.69;5023733;28;20044;-68
2022/09/14 07:41:04;;;;;;;8.02;2.67;;;;;;;16.46;86.62;100665.63;5014704;28;20042;-68
2022/09/14 07:43:30;;;;;;;5.93;2.60;;;;;;;16.43;86.09;100666.47;5021598;28;20090;-68
2022/09/14 07:45:55;;;;;;;4.85;2.20;;;;;;;16.44;85.58;100664.72;5022554;28;20018;-68
2022/09/14 07:48:21;;;;;;;8.40;2.40;;;;;;;16.44;85.42;100659.53;5022154;28;20022;-68
2022/09/14 07:50:46;;;;;;;8.07;2.55;;;;;;;16.44;85.39;100654.34;5021040;28;20064;-68
2022/09/14 07:53:13;;;;;;;7.22;2.30;;;;;;;16.43;84.97;100655.22;5021524;28;20059;-68
2022/09/14 07:55:39;;;;;;;6.78;2.20;;;;;;;16.39;85.73;100659.56;5019262;28;20402;-68
2022/09/14 07:58:06;;;;;;;5.40;2.30;;;;;;;16.39;86.10;100654.38;5022523;28;20087;-68
2022/09/14 08:00:32;;;;;;;6.97;2.33;;;;;;;16.41;86.37;100656.97;5022720;28;20033;-68
2022/09/14 08:02:58;;;;;;;7.90;2.53;;;;;;;16.39;85.42;100653.50;5019680;28;20024;-68
2022/09/14 08:05:25;;;;;;;7.45;2.38;;;;;;;16.35;86.45;100650.91;5021168;28;20030;-68
2022/09/14 08:07:56;;;;;;;8.68;2.00;;;;;;;16.38;85.49;100646.56;5019804;28;20036;-68
2022/09/14 08:10:23;;;;;;;7.45;2.17;;;;;;;16.33;85.08;100650.03;5019633;28;20145;-69
2022/09/14 08:12:53;;;;;;;7.45;2.80;;;;;;;16.26;85.61;100656.09;5022123;28;20037;-68
2022/09/14 08:15:22;;;;;;;7.40;2.72;;;;;;;16.34;86.56;100656.09;5019642;28;20095;-68
2022/09/14 08:17:48;;;;;;;;;;;;;;;16.51;84.98;100659.56;5016425;28;20034;-69
2022/09/14 08:20:15;;;;;;;6.70;2.83;;;;;;;16.43;85.71;100658.69;5020707;28;19920;-68
2022/09/14 08:22:42;;;;;;;5.15;2.20;;;;;;;16.42;85.61;100653.50;5020579;28;20042;-68
2022/09/14 08:25:08;;;;;;;9.07;2.50;;;;;;;16.42;86.46;100656.09;5019384;28;20022;-69
2022/09/14 08:27:34;;;;;;;7.38;2.55;;;;;;;16.43;86.81;100647.44;5005577;28;20454;-68
2022/09/14 08:29:59;;;;;;;8.23;2.30;;;;;;;16.44;85.19;100651.75;5015098;28;20108;-69
2022/09/14 08:32:24;;;;;;;8.80;2.50;;;;;;;16.40;85.49;100655.25;5002940;28;20041;-69
2022/09/14 08:34:50;;;;;;;5.60;2.25;;;;;;;16.44;86.10;100652.66;5015328;28;20056;-68
2022/09/14 08:37:16;;;;;;;6.10;2.28;;;;;;;16.43;85.62;100658.69;5019234;28;20065;-68
2022/09/14 08:39:41;;;;;;;6.45;2.42;;;;;;;16.41;86.60;100656.97;5018055;28;20120;-69
2022/09/14 08:42:13;;;;;;;8.52;2.80;;;;;;;16.43;86.82;100660.41;5015104;28;20144;-69
2022/09/14 08:44:43;;;;;;;5.78;2.70;;;;;;;16.43;85.49;100656.09;5016764;28;20025;-68
2022/09/14 08:47:37;;;;;;;7.57;2.65;;;;;;;16.51;85.99;100659.56;5020405;28;20029;-68
2022/09/14 08:50:09;;;;;;;8.75;2.58;;;;;;;16.50;86.89;100664.75;5011813;28;20132;-68
2022/09/14 08:52:43;;;;;;;5.78;2.75;;;;;;;16.51;86.31;100656.13;5000937;28;20124;-68
2022/09/14 08:55:28;;;;;;;9.57;2.90;;;;;;;16.47;86.39;100655.22;5023828;28;20049;-68
2022/09/14 08:58:00;;;;;;;6.03;2.63;;;;;;;16.50;85.29;100663.03;4998793;28;20080;-69
2022/09/14 09:00:37;;;;;;;9.52;2.88;;;;;;;16.47;85.89;100656.97;5021385;28;20033;-69
2022/09/14 09:03:27;;;;;;;7.65;2.92;;;;;;;16.45;85.65;100654.38;5016949;28;20481;-68
2022/09/14 09:06:07;;;;;;;6.20;2.67;;;;;;;16.44;85.97;100667.31;5021592;28;20017;-68
2022/09/14 09:08:38;;;;;;;8.18;2.85;;;;;;;16.45;85.96;100669.94;5018747;28;20133;-68
2022/09/14 09:11:09;;;;;;;9.57;2.88;;;;;;;16.44;85.66;100667.31;5022692;28;20033;-69
2022/09/14 09:13:37;;;;;;;7.03;3.40;;;;;;;16.44;87.34;100669.94;5025126;28;20087;-68
2022/09/14 09:16:06;;;;;;;9.77;3.40;;;;;;;16.46;87.18;100669.09;5000587;28;20025;-68
2022/09/14 09:18:53;;;;;;;6.68;2.78;;;;;;;16.48;86.54;100662.16;5005522;28;20552;-68
2022/09/14 09:21:24;;;;;;;7.18;2.95;;;;;;;16.44;86.64;100659.53;4999745;28;20025;-69
2022/09/14 09:23:49;;;;;;;10.82;3.40;;;;;;;16.46;87.25;100666.47;5017973;28;20041;-68
2022/09/14 09:26:26;;;;;;;6.70;3.60;;;;;;;16.47;87.66;100668.22;5021422;28;20034;-68
2022/09/14 09:28:55;;;;;;;7.85;3.47;;;;;;;16.46;87.66;100661.28;5015231;28;20028;-68
2022/09/14 09:31:26;;;;;;;;;;;;;;;16.63;86.14;100662.16;5003409;28;20502;-69
2022/09/14 09:33:52;;;;;;;6.25;3.22;;;;;;;16.51;87.07;100664.75;5017729;28;19962;-68
2022/09/14 09:36:18;;;;;;;9.35;3.60;;;;;;;16.50;86.63;100665.63;5015827;28;20029;-73
2022/09/14 09:38:44;;;;;;;7.75;3.10;;;;;;;16.51;86.33;100661.31;5016079;28;20417;-73
2022/09/14 09:41:20;;;;;;;8.75;3.30;;;;;;;16.50;86.76;100663.03;5020074;28;20025;-73
2022/09/14 09:44:08;;;;;;;9.00;3.13;;;;;;;16.49;86.99;100656.09;5003681;28;20120;-73
2022/09/14 09:46:39;;;;;;;8.07;3.38;;;;;;;16.43;87.24;100661.28;5005795;28;20400;-73
2022/09/14 09:49:15;;;;;;;9.88;3.25;;;;;;;16.45;86.85;100661.31;5025234;28;20434;-73
2022/09/14 09:51:41;;;;;;;6.25;2.92;;;;;;;16.32;86.96;100652.63;5018769;28;20064;-72
2022/09/14 09:54:15;;;;;;;12.65;3.15;;;;;;;16.38;86.91;100655.25;5020365;28;20049;-73
2022/09/14 09:57:02;;;;;;;7.97;2.90;;;;;;;16.40;86.64;100653.50;5018814;28;20339;-73
2022/09/14 09:59:30;;;;;;;8.02;3.20;;;;;;;16.35;87.38;100650.91;4999051;28;20046;-73
2022/09/14 10:02:13;;;;;;;5.63;3.30;;;;;;;16.36;87.24;100644.84;5019132;28;20104;-73
2022/09/14 10:05:04;;;;;;;6.50;3.15;;;;;;;16.45;87.15;100649.19;5021594;28;20476;-73
2022/09/14 10:07:39;;;;;;;8.20;3.58;;;;;;;16.44;87.28;100641.38;5019028;28;20871;-72
2022/09/14 10:10:11;;;;;;;7.63;3.35;;;;;;;16.49;88.04;100639.66;5021598;28;20053;-72
2022/09/14 10:12:38;;;;;;;7.22;3.90;;;;;;;16.47;88.42;100642.25;5017438;28;20041;-73
2022/09/14 10:15:19;;;;;;;5.88;3.50;;;;;;;16.53;88.38;100642.25;5017560;28;20052;-72
2022/09/14 10:18:08;;;;;;;6.68;3.80;;;;;;;16.55;88.64;100652.63;5023855;28;20491;-73
2022/09/14 10:20:34;;;;;;;;;;;;;;;16.68;87.21;100648.31;5003335;28;20088;-73
2022/09/14 10:23:18;;;;;;;9.10;3.83;;;;;;;16.62;88.92;100647.47;5024140;28;19971;-73
2022/09/14 10:26:13;;;;;;;7.57;4.10;;;;;;;16.63;87.80;100644.00;5019920;28;20036;-73
2022/09/14 10:28:41;;;;;;;7.70;3.97;;;;;;;16.63;88.23;100640.53;5011272;28;20183;-73
2022/09/14 10:31:11;;;;;;;7.18;3.63;;;;;;;16.64;87.57;100644.88;5019720;28;20022;-73
2022/09/14 10:33:37;;;;;;;8.95;4.15;;;;;;;16.66;89.22;100647.44;5019539;28;20068;-72
2022/09/14 10:36:09;;;;;;;9.73;4.03;;;;;;;16.68;89.22;100645.72;5020588;28;20053;-73
2022/09/14 10:38:41;;;;;;;8.45;3.75;;;;;;;16.69;88.86;100644.88;5019866;28;20120;-73
2022/09/14 10:41:10;;;;;;;6.63;3.85;;;;;;;16.71;86.95;100650.94;5017519;28;20055;-73
2022/09/14 10:44:01;;;;;;;;;;;;;;;16.80;85.82;100646.59;5019355;28;20029;-73
2022/09/14 10:46:41;;;;;;;8.07;3.85;;;;;;;16.72;87.30;100647.47;4981307;28;19976;-74
2022/09/14 10:49:10;;;;;;;6.85;3.45;;;;;;;16.70;88.13;100644.00;5022043;28;20052;-73
2022/09/14 10:52:03;;;;;;;10.45;3.55;;;;;;;16.73;86.25;100639.69;5020931;28;20500;-72
2022/09/14 10:54:37;;;;;;;11.43;4.05;;;;;;;16.66;86.24;100647.44;5023525;28;20459;-73
2022/09/14 10:57:03;;;;;;;10.13;3.78;;;;;;;16.68;86.00;100638.78;5019476;28;20021;-73
2022/09/14 10:59:58;;;;;;;14.75;4.10;;;;;;;16.69;85.71;100640.53;5015496;28;20026;-72
2022/09/14 11:03:00;;;;;;;9.82;3.90;;;;;;;16.74;85.66;100648.34;5008690;28;20540;-73
2022/09/14 11:05:45;;;;;;;14.10;4.43;;;;;;;16.74;86.15;100641.41;5016516;28;20116;-73
2022/09/14 11:08:14;;;;;;;7.57;3.00;;;;;;;16.68;84.25;100633.59;5017129;28;20035;-72
2022/09/14 11:11:03;;;;;;;7.93;3.33;;;;;;;16.74;84.28;100638.81;5018895;28;20668;-73
2022/09/14 11:13:49;;;;;;;6.18;3.33;;;;;;;16.74;85.66;100638.81;5016940;28;20030;-72
2022/09/14 11:16:18;;;;;;;8.70;3.90;;;;;;;16.72;85.91;100637.97;5017860;28;20033;-72
2022/09/14 11:19:12;;;;;;;8.85;4.28;;;;;;;16.73;86.52;100638.81;5023679;28;20083;-72
2022/09/14 11:22:06;;;;;;;8.00;4.30;;;;;;;16.68;86.91;100630.13;5018471;28;20022;-72
2022/09/14 11:24:57;;;;;;;7.38;4.03;;;;;;;16.72;87.91;100639.69;5016621;28;20550;-72
2022/09/14 11:27:39;;;;;;;6.80;3.90;;;;;;;16.76;87.17;100641.44;5013803;28;20059;-72
2022/09/14 11:30:16;;;;;;;7.85;3.65;;;;;;;16.72;86.18;100635.38;5014454;28;20136;-72
2022/09/14 11:32:50;;;;;;;8.23;3.80;;;;;;;16.72;87.22;100639.69;5012866;28;20025;-73
2022/09/14 11:35:44;;;;;;;9.35;4.10;;;;;;;16.75;86.96;100632.78;5018067;28;20073;-73
2022/09/14 11:38:28;;;;;;;6.65;3.60;;;;;;;16.74;85.03;100636.22;5017116;28;20033;-73
2022/09/14 11:41:16;;;;;;;9.98;4.00;;;;;;;16.72;86.05;100627.56;5018116;28;20038;-73
2022/09/14 11:44:15;;;;;;;7.55;3.65;;;;;;;16.78;85.35;100630.16;5011690;28;20037;-73
2022/09/14 11:46:48;;;;;;;7.65;3.33;;;;;;;16.68;84.03;100638.78;5017653;28;20032;-72